Weather at Kuopio Airport

Public forecast

Using degrees Celsius for public forecast. Weather courtesy of forecast.io.

Current aviation weather report (METAR) for Kuopio Airport

2024/06/21 04:50 (retrieved 30 minutes ago)

EFKU 210450Z AUTO 28012KT 250V310 9999 FEW030 14/06 Q1004

Closest aviation forecast (TAF) to Kuopio Airport

Forecast is more than 6 hours old.

Closest forecast is Quaqtaq Airport, 2,479.3 nm (4,591.7 km) NW.

2024/06/20 20:12 Ammendment (retrieved 9 hours ago)

TAF AMD CYHA 202009Z 2020/2021 35003KT P6SM FEW025 BKN050 TEMPO 2020/2021 BKN020 OVC040 RMK NXT FCST BY 211400Z